sensor_id;sensor_type;location;lat;lon;timestamp;temperature;humidity
23122;DHT22;11730;51.248;22.534;2022-12-05T00:03:58;0.00;99.90
23122;DHT22;11730;51.248;22.534;2022-12-05T00:06:28;0.10;99.90
23122;DHT22;11730;51.248;22.534;2022-12-05T00:08:56;0.10;99.90
23122;DHT22;11730;51.248;22.534;2022-12-05T00:11:25;0.10;99.90
23122;DHT22;11730;51.248;22.534;2022-12-05T00:13:54;0.20;99.90
23122;DHT22;11730;51.248;22.534;2022-12-05T00:16:24;0.20;99.90
23122;DHT22;11730;51.248;22.534;2022-12-05T00:18:51;0.20;99.90
23122;DHT22;11730;51.248;22.534;2022-12-05T00:21:24;0.20;99.90
23122;DHT22;11730;51.248;22.534;2022-12-05T00:23:52;0.10;99.90
23122;DHT22;11730;51.248;22.534;2022-12-05T00:26:20;0.00;99.90
23122;DHT22;11730;51.248;22.534;2022-12-05T00:28:47;0.30;99.90
23122;DHT22;11730;51.248;22.534;2022-12-05T00:31:17;0.20;99.90
23122;DHT22;11730;51.248;22.534;2022-12-05T00:33:45;0.10;99.90
23122;DHT22;11730;51.248;22.534;2022-12-05T00:36:18;0.20;99.90
23122;DHT22;11730;51.248;22.534;2022-12-05T00:38:46;0.20;99.90
23122;DHT22;11730;51.248;22.534;2022-12-05T00:41:16;0.20;99.90
23122;DHT22;11730;51.248;22.534;2022-12-05T00:43:43;0.20;99.90
23122;DHT22;11730;51.248;22.534;2022-12-05T00:46:14;0.10;99.90
23122;DHT22;11730;51.248;22.534;2022-12-05T00:48:42;0.20;99.90
23122;DHT22;11730;51.248;22.534;2022-12-05T00:51:15;0.10;99.90
23122;DHT22;11730;51.248;22.534;2022-12-05T00:53:43;0.20;99.90
23122;DHT22;11730;51.248;22.534;2022-12-05T00:56:12;0.20;99.90
23122;DHT22;11730;51.248;22.534;2022-12-05T00:58:41;0.30;99.90
23122;DHT22;11730;51.248;22.534;2022-12-05T01:03:40;0.30;99.90
23122;DHT22;11730;51.248;22.534;2022-12-05T01:06:09;0.10;99.90
23122;DHT22;11730;51.248;22.534;2022-12-05T01:08:37;0.20;99.90
23122;DHT22;11730;51.248;22.534;2022-12-05T01:11:05;0.20;99.90
23122;DHT22;11730;51.248;22.534;2022-12-05T01:13:32;1.30;99.90
23122;DHT22;11730;51.248;22.534;2022-12-05T01:16:00;0.20;99.90
23122;DHT22;11730;51.248;22.534;2022-12-05T01:18:28;0.20;99.90
23122;DHT22;11730;51.248;22.534;2022-12-05T01:20:55;0.30;99.90
23122;DHT22;11730;51.248;22.534;2022-12-05T01:23:22;0.20;99.90
23122;DHT22;11730;51.248;22.534;2022-12-05T01:25:51;0.20;99.90
23122;DHT22;11730;51.248;22.534;2022-12-05T01:28:18;0.20;99.90
23122;DHT22;11730;51.248;22.534;2022-12-05T01:30:47;0.20;99.90
23122;DHT22;11730;51.248;22.534;2022-12-05T01:33:15;0.20;99.90
23122;DHT22;11730;51.248;22.534;2022-12-05T01:35:43;0.20;99.90
23122;DHT22;11730;51.248;22.534;2022-12-05T01:38:11;0.20;99.90
23122;DHT22;11730;51.248;22.534;2022-12-05T01:40:39;0.20;99.90
23122;DHT22;11730;51.248;22.534;2022-12-05T01:43:15;0.10;99.90
23122;DHT22;11730;51.248;22.534;2022-12-05T01:45:44;0.10;99.90
23122;DHT22;11730;51.248;22.534;2022-12-05T01:48:21;0.20;99.90
23122;DHT22;11730;51.248;22.534;2022-12-05T01:50:49;0.20;99.90
23122;DHT22;11730;51.248;22.534;2022-12-05T01:53:17;0.10;99.90
23122;DHT22;11730;51.248;22.534;2022-12-05T01:55:46;0.20;99.90
23122;DHT22;11730;51.248;22.534;2022-12-05T01:58:14;0.10;99.90
23122;DHT22;11730;51.248;22.534;2022-12-05T02:00:42;0.00;99.90
23122;DHT22;11730;51.248;22.534;2022-12-05T02:03:17;0.10;99.90
23122;DHT22;11730;51.248;22.534;2022-12-05T02:05:47;0.10;99.90
23122;DHT22;11730;51.248;22.534;2022-12-05T02:08:16;0.10;99.90
23122;DHT22;11730;51.248;22.534;2022-12-05T02:10:46;0.10;99.90
23122;DHT22;11730;51.248;22.534;2022-12-05T02:13:39;0.10;99.90
23122;DHT22;11730;51.248;22.534;2022-12-05T02:16:32;0.00;99.90
23122;DHT22;11730;51.248;22.534;2022-12-05T02:30:18;0.00;99.90
23122;DHT22;11730;51.248;22.534;2022-12-05T02:33:04;0.00;99.90
23122;DHT22;11730;51.248;22.534;2022-12-05T02:38:40;0.10;99.90
23122;DHT22;11730;51.248;22.534;2022-12-05T02:46:18;0.00;99.90
23122;DHT22;11730;51.248;22.534;2022-12-05T02:48:48;0.00;99.90
23122;DHT22;11730;51.248;22.534;2022-12-05T02:51:20;0.00;99.90
23122;DHT22;11730;51.248;22.534;2022-12-05T02:53:49;-0.10;99.90
23122;DHT22;11730;51.248;22.534;2022-12-05T02:56:17;-0.10;99.90
23122;DHT22;11730;51.248;22.534;2022-12-05T02:58:53;0.00;99.90
23122;DHT22;11730;51.248;22.534;2022-12-05T03:01:25;-0.20;99.90
23122;DHT22;11730;51.248;22.534;2022-12-05T03:03:55;-0.10;99.90
23122;DHT22;11730;51.248;22.534;2022-12-05T03:06:29;-0.10;99.90
23122;DHT22;11730;51.248;22.534;2022-12-05T03:09:20;0.00;99.90
23122;DHT22;11730;51.248;22.534;2022-12-05T03:12:22;0.00;99.90
23122;DHT22;11730;51.248;22.534;2022-12-05T03:15:03;-1.80;99.90
23122;DHT22;11730;51.248;22.534;2022-12-05T03:17:40;-0.10;99.90
23122;DHT22;11730;51.248;22.534;2022-12-05T03:20:18;-0.10;99.90
23122;DHT22;11730;51.248;22.534;2022-12-05T03:22:53;0.00;99.90
23122;DHT22;11730;51.248;22.534;2022-12-05T03:25:29;0.00;99.90
23122;DHT22;11730;51.248;22.534;2022-12-05T03:28:40;0.00;99.90
23122;DHT22;11730;51.248;22.534;2022-12-05T03:31:03;0.00;99.90
23122;DHT22;11730;51.248;22.534;2022-12-05T03:33:41;0.00;99.90
23122;DHT22;11730;51.248;22.534;2022-12-05T03:36:17;-0.10;99.90
23122;DHT22;11730;51.248;22.534;2022-12-05T03:39:10;-0.10;99.90
23122;DHT22;11730;51.248;22.534;2022-12-05T03:45:17;-0.30;99.90
23122;DHT22;11730;51.248;22.534;2022-12-05T03:47:35;-0.20;99.90
23122;DHT22;11730;51.248;22.534;2022-12-05T03:50:23;-0.20;99.90
23122;DHT22;11730;51.248;22.534;2022-12-05T03:53:07;-0.10;99.90
23122;DHT22;11730;51.248;22.534;2022-12-05T03:56:17;-0.10;99.90
23122;DHT22;11730;51.248;22.534;2022-12-05T03:59:15;-0.20;99.90
23122;DHT22;11730;51.248;22.534;2022-12-05T04:01:45;-0.10;99.90
23122;DHT22;11730;51.248;22.534;2022-12-05T04:04:21;-0.10;99.90
23122;DHT22;11730;51.248;22.534;2022-12-05T04:06:53;-0.20;99.90
23122;DHT22;11730;51.248;22.534;2022-12-05T04:09:28;-0.10;99.90
23122;DHT22;11730;51.248;22.534;2022-12-05T04:12:02;-0.10;99.90
23122;DHT22;11730;51.248;22.534;2022-12-05T04:15:07;0.00;99.90
23122;DHT22;11730;51.248;22.534;2022-12-05T04:17:58;-0.10;99.90
23122;DHT22;11730;51.248;22.534;2022-12-05T04:20:29;-0.20;99.90
23122;DHT22;11730;51.248;22.534;2022-12-05T04:23:17;-0.20;99.90
23122;DHT22;11730;51.248;22.534;2022-12-05T04:28:44;-0.10;99.90
23122;DHT22;11730;51.248;22.534;2022-12-05T04:31:25;-0.10;99.90
23122;DHT22;11730;51.248;22.534;2022-12-05T04:34:01;-0.10;99.90
23122;DHT22;11730;51.248;22.534;2022-12-05T04:36:49;-0.10;99.90
23122;DHT22;11730;51.248;22.534;2022-12-05T04:39:32;-0.10;99.90
23122;DHT22;11730;51.248;22.534;2022-12-05T04:42:13;-0.10;99.90
23122;DHT22;11730;51.248;22.534;2022-12-05T04:44:48;-0.10;99.90
23122;DHT22;11730;51.248;22.534;2022-12-05T04:47:19;-0.20;99.90
23122;DHT22;11730;51.248;22.534;2022-12-05T04:49:47;-0.10;99.90
23122;DHT22;11730;51.248;22.534;2022-12-05T04:52:19;-0.10;99.90
23122;DHT22;11730;51.248;22.534;2022-12-05T04:55:01;-0.10;99.90
23122;DHT22;11730;51.248;22.534;2022-12-05T04:57:40;-0.10;99.90
23122;DHT22;11730;51.248;22.534;2022-12-05T05:00:08;-0.10;99.90
23122;DHT22;11730;51.248;22.534;2022-12-05T05:02:49;-0.10;99.90
23122;DHT22;11730;51.248;22.534;2022-12-05T05:05:18;-0.10;99.90
23122;DHT22;11730;51.248;22.534;2022-12-05T05:07:49;-0.10;99.90
23122;DHT22;11730;51.248;22.534;2022-12-05T05:10:20;-0.10;99.90
23122;DHT22;11730;51.248;22.534;2022-12-05T05:12:48;-0.10;99.90
23122;DHT22;11730;51.248;22.534;2022-12-05T05:15:15;-0.10;99.90
23122;DHT22;11730;51.248;22.534;2022-12-05T05:17:42;-0.10;99.90
23122;DHT22;11730;51.248;22.534;2022-12-05T05:20:09;0.00;99.90
23122;DHT22;11730;51.248;22.534;2022-12-05T05:22:54;0.00;99.90
23122;DHT22;11730;51.248;22.534;2022-12-05T05:25:22;0.00;99.90
23122;DHT22;11730;51.248;22.534;2022-12-05T05:27:51;-0.10;99.90
23122;DHT22;11730;51.248;22.534;2022-12-05T05:30:19;-0.10;99.90
23122;DHT22;11730;51.248;22.534;2022-12-05T05:32:46;-0.10;99.90
23122;DHT22;11730;51.248;22.534;2022-12-05T05:35:14;-0.10;99.90
23122;DHT22;11730;51.248;22.534;2022-12-05T05:37:42;-0.10;99.90
23122;DHT22;11730;51.248;22.534;2022-12-05T05:40:11;0.00;99.90
23122;DHT22;11730;51.248;22.534;2022-12-05T05:42:47;-0.10;99.90
23122;DHT22;11730;51.248;22.534;2022-12-05T05:45:15;0.00;99.90
23122;DHT22;11730;51.248;22.534;2022-12-05T05:47:42;-0.10;99.90
23122;DHT22;11730;51.248;22.534;2022-12-05T05:50:10;-0.10;99.90
23122;DHT22;11730;51.248;22.534;2022-12-05T05:52:45;-0.10;99.90
23122;DHT22;11730;51.248;22.534;2022-12-05T05:55:12;0.00;99.90
23122;DHT22;11730;51.248;22.534;2022-12-05T05:57:39;0.00;99.90
23122;DHT22;11730;51.248;22.534;2022-12-05T06:00:06;-0.10;99.90
23122;DHT22;11730;51.248;22.534;2022-12-05T06:02:34;-0.10;99.90
23122;DHT22;11730;51.248;22.534;2022-12-05T06:05:02;-0.10;99.90
23122;DHT22;11730;51.248;22.534;2022-12-05T06:07:29;-0.10;99.90
23122;DHT22;11730;51.248;22.534;2022-12-05T06:09:56;-0.10;99.90
23122;DHT22;11730;51.248;22.534;2022-12-05T06:12:24;-0.10;99.90
23122;DHT22;11730;51.248;22.534;2022-12-05T06:14:51;-0.10;99.90
23122;DHT22;11730;51.248;22.534;2022-12-05T06:17:18;-0.10;99.90
23122;DHT22;11730;51.248;22.534;2022-12-05T06:19:45;-0.10;99.90
23122;DHT22;11730;51.248;22.534;2022-12-05T06:22:12;-0.10;99.90
23122;DHT22;11730;51.248;22.534;2022-12-05T06:24:39;-0.20;99.90
23122;DHT22;11730;51.248;22.534;2022-12-05T06:27:06;-0.20;99.90
23122;DHT22;11730;51.248;22.534;2022-12-05T06:29:33;-0.10;99.90
23122;DHT22;11730;51.248;22.534;2022-12-05T06:32:01;-0.20;99.90
23122;DHT22;11730;51.248;22.534;2022-12-05T06:34:28;-0.10;99.90
23122;DHT22;11730;51.248;22.534;2022-12-05T06:36:55;-0.20;99.90
23122;DHT22;11730;51.248;22.534;2022-12-05T06:39:22;-0.20;99.90
23122;DHT22;11730;51.248;22.534;2022-12-05T06:41:49;-0.10;99.90
23122;DHT22;11730;51.248;22.534;2022-12-05T06:44:16;-0.20;99.90
23122;DHT22;11730;51.248;22.534;2022-12-05T06:46:43;-0.20;99.90
23122;DHT22;11730;51.248;22.534;2022-12-05T06:49:10;-0.10;99.90
23122;DHT22;11730;51.248;22.534;2022-12-05T06:51:37;-0.20;99.90
23122;DHT22;11730;51.248;22.534;2022-12-05T06:54:04;-0.10;99.90
23122;DHT22;11730;51.248;22.534;2022-12-05T06:56:31;-0.30;99.90
23122;DHT22;11730;51.248;22.534;2022-12-05T06:58:58;-0.10;99.90
23122;DHT22;11730;51.248;22.534;2022-12-05T07:01:25;-0.10;99.90
23122;DHT22;11730;51.248;22.534;2022-12-05T07:07:02;-0.10;99.90
23122;DHT22;11730;51.248;22.534;2022-12-05T07:09:29;-0.10;99.90
23122;DHT22;11730;51.248;22.534;2022-12-05T07:12:12;-0.10;99.90
23122;DHT22;11730;51.248;22.534;2022-12-05T07:14:40;-0.10;99.90
23122;DHT22;11730;51.248;22.534;2022-12-05T07:17:20;-0.10;99.90
23122;DHT22;11730;51.248;22.534;2022-12-05T07:19:48;-0.10;99.90
23122;DHT22;11730;51.248;22.534;2022-12-05T07:22:16;-0.20;99.90
23122;DHT22;11730;51.248;22.534;2022-12-05T07:24:44;0.00;99.90
23122;DHT22;11730;51.248;22.534;2022-12-05T07:27:12;0.00;99.90
23122;DHT22;11730;51.248;22.534;2022-12-05T07:29:40;-0.10;99.90
23122;DHT22;11730;51.248;22.534;2022-12-05T07:32:07;0.00;99.90
23122;DHT22;11730;51.248;22.534;2022-12-05T07:34:34;0.00;99.90
23122;DHT22;11730;51.248;22.534;2022-12-05T07:37:01;-0.10;99.90
23122;DHT22;11730;51.248;22.534;2022-12-05T07:39:28;-0.20;99.90
23122;DHT22;11730;51.248;22.534;2022-12-05T07:41:55;0.00;99.90
23122;DHT22;11730;51.248;22.534;2022-12-05T07:44:22;-0.10;99.90
23122;DHT22;11730;51.248;22.534;2022-12-05T07:46:48;-0.10;99.90
23122;DHT22;11730;51.248;22.534;2022-12-05T07:49:16;0.00;99.90
23122;DHT22;11730;51.248;22.534;2022-12-05T07:51:43;0.00;99.90
23122;DHT22;11730;51.248;22.534;2022-12-05T07:54:10;0.00;99.90
23122;DHT22;11730;51.248;22.534;2022-12-05T07:56:37;0.00;99.90
23122;DHT22;11730;51.248;22.534;2022-12-05T07:59:10;-0.10;99.90
23122;DHT22;11730;51.248;22.534;2022-12-05T08:01:37;0.00;99.90
23122;DHT22;11730;51.248;22.534;2022-12-05T08:04:04;0.10;99.90
23122;DHT22;11730;51.248;22.534;2022-12-05T08:06:34;0.00;99.90
23122;DHT22;11730;51.248;22.534;2022-12-05T08:09:01;0.00;99.90
23122;DHT22;11730;51.248;22.534;2022-12-05T08:11:31;0.00;99.90
23122;DHT22;11730;51.248;22.534;2022-12-05T08:14:02;0.00;99.90
23122;DHT22;11730;51.248;22.534;2022-12-05T08:16:30;0.20;99.90
23122;DHT22;11730;51.248;22.534;2022-12-05T08:19:03;0.10;99.90
23122;DHT22;11730;51.248;22.534;2022-12-05T08:21:31;0.00;99.90
23122;DHT22;11730;51.248;22.534;2022-12-05T08:23:58;0.10;99.90
23122;DHT22;11730;51.248;22.534;2022-12-05T08:26:29;0.20;99.90
23122;DHT22;11730;51.248;22.534;2022-12-05T08:29:05;0.20;99.90
23122;DHT22;11730;51.248;22.534;2022-12-05T08:31:37;0.10;99.90
23122;DHT22;11730;51.248;22.534;2022-12-05T08:34:04;0.00;99.90
23122;DHT22;11730;51.248;22.534;2022-12-05T08:36:31;0.10;99.90
23122;DHT22;11730;51.248;22.534;2022-12-05T08:39:00;0.20;99.90
23122;DHT22;11730;51.248;22.534;2022-12-05T08:41:28;0.20;99.90
23122;DHT22;11730;51.248;22.534;2022-12-05T08:43:58;0.10;99.90
23122;DHT22;11730;51.248;22.534;2022-12-05T08:46:25;0.10;99.90
23122;DHT22;11730;51.248;22.534;2022-12-05T08:48:52;0.20;99.90
23122;DHT22;11730;51.248;22.534;2022-12-05T08:51:19;0.10;99.90
23122;DHT22;11730;51.248;22.534;2022-12-05T08:53:46;0.20;99.90
23122;DHT22;11730;51.248;22.534;2022-12-05T08:56:13;0.20;99.90
23122;DHT22;11730;51.248;22.534;2022-12-05T08:58:40;0.20;99.90
23122;DHT22;11730;51.248;22.534;2022-12-05T09:01:14;0.20;99.90
23122;DHT22;11730;51.248;22.534;2022-12-05T09:03:43;0.30;99.90
23122;DHT22;11730;51.248;22.534;2022-12-05T09:06:19;0.30;99.90
23122;DHT22;11730;51.248;22.534;2022-12-05T09:08:46;0.20;99.90
23122;DHT22;11730;51.248;22.534;2022-12-05T09:11:18;0.30;99.90
23122;DHT22;11730;51.248;22.534;2022-12-05T09:13:46;0.20;99.90
23122;DHT22;11730;51.248;22.534;2022-12-05T09:16:19;0.30;99.90
23122;DHT22;11730;51.248;22.534;2022-12-05T09:18:47;0.30;99.90
23122;DHT22;11730;51.248;22.534;2022-12-05T09:21:16;0.40;99.90
23122;DHT22;11730;51.248;22.534;2022-12-05T09:23:44;0.40;99.90
23122;DHT22;11730;51.248;22.534;2022-12-05T09:26:13;0.50;99.90
23122;DHT22;11730;51.248;22.534;2022-12-05T09:28:42;0.60;99.90
23122;DHT22;11730;51.248;22.534;2022-12-05T09:31:14;0.60;99.90
23122;DHT22;11730;51.248;22.534;2022-12-05T09:33:42;0.60;99.90
23122;DHT22;11730;51.248;22.534;2022-12-05T09:36:13;0.60;99.90
23122;DHT22;11730;51.248;22.534;2022-12-05T09:38:40;0.60;99.90
23122;DHT22;11730;51.248;22.534;2022-12-05T09:44:21;0.60;99.90
23122;DHT22;11730;51.248;22.534;2022-12-05T09:46:58;0.60;99.90
23122;DHT22;11730;51.248;22.534;2022-12-05T09:49:26;0.60;99.90
23122;DHT22;11730;51.248;22.534;2022-12-05T09:51:55;0.50;99.90
23122;DHT22;11730;51.248;22.534;2022-12-05T09:54:24;0.50;99.90
23122;DHT22;11730;51.248;22.534;2022-12-05T09:56:51;0.60;99.90
23122;DHT22;11730;51.248;22.534;2022-12-05T09:59:19;0.50;99.90
23122;DHT22;11730;51.248;22.534;2022-12-05T10:02:32;0.50;99.90
23122;DHT22;11730;51.248;22.534;2022-12-05T10:05:07;0.50;99.90
23122;DHT22;11730;51.248;22.534;2022-12-05T10:10:26;0.50;99.90
23122;DHT22;11730;51.248;22.534;2022-12-05T10:15:41;0.60;99.90
23122;DHT22;11730;51.248;22.534;2022-12-05T10:18:33;0.70;99.90
23122;DHT22;11730;51.248;22.534;2022-12-05T10:21:16;0.80;99.90
23122;DHT22;11730;51.248;22.534;2022-12-05T10:24:04;0.70;99.90
23122;DHT22;11730;51.248;22.534;2022-12-05T10:26:36;0.80;99.90
23122;DHT22;11730;51.248;22.534;2022-12-05T10:31:44;0.90;99.90
23122;DHT22;11730;51.248;22.534;2022-12-05T10:34:22;1.00;99.90
23122;DHT22;11730;51.248;22.534;2022-12-05T10:37:00;0.90;99.90
23122;DHT22;11730;51.248;22.534;2022-12-05T10:39:28;0.80;99.90
23122;DHT22;11730;51.248;22.534;2022-12-05T10:41:55;0.80;99.90
23122;DHT22;11730;51.248;22.534;2022-12-05T10:44:22;0.80;99.90
23122;DHT22;11730;51.248;22.534;2022-12-05T10:46:49;0.70;99.90
23122;DHT22;11730;51.248;22.534;2022-12-05T10:49:17;0.70;99.90
23122;DHT22;11730;51.248;22.534;2022-12-05T10:51:45;0.60;99.90
23122;DHT22;11730;51.248;22.534;2022-12-05T10:54:29;0.70;99.90
23122;DHT22;11730;51.248;22.534;2022-12-05T10:56:57;0.70;99.90
23122;DHT22;11730;51.248;22.534;2022-12-05T10:59:25;0.80;99.90
23122;DHT22;11730;51.248;22.534;2022-12-05T11:02:21;0.80;99.90
23122;DHT22;11730;51.248;22.534;2022-12-05T11:04:49;0.70;99.90
23122;DHT22;11730;51.248;22.534;2022-12-05T11:07:29;0.80;99.90
23122;DHT22;11730;51.248;22.534;2022-12-05T11:10:02;0.80;99.90
23122;DHT22;11730;51.248;22.534;2022-12-05T11:15:18;0.90;99.90
23122;DHT22;11730;51.248;22.534;2022-12-05T11:17:48;0.90;99.90
23122;DHT22;11730;51.248;22.534;2022-12-05T11:22:50;0.90;99.90
23122;DHT22;11730;51.248;22.534;2022-12-05T11:27:55;1.00;99.90
23122;DHT22;11730;51.248;22.534;2022-12-05T11:30:27;0.90;99.90
23122;DHT22;11730;51.248;22.534;2022-12-05T11:33:18;1.00;99.90
23122;DHT22;11730;51.248;22.534;2022-12-05T11:35:51;1.00;99.90
23122;DHT22;11730;51.248;22.534;2022-12-05T11:38:20;1.00;99.90
23122;DHT22;11730;51.248;22.534;2022-12-05T11:40:55;1.00;99.90
23122;DHT22;11730;51.248;22.534;2022-12-05T11:46:31;1.00;99.90
23122;DHT22;11730;51.248;22.534;2022-12-05T11:54:31;1.10;99.90
23122;DHT22;11730;51.248;22.534;2022-12-05T11:57:49;1.10;99.90
23122;DHT22;11730;51.248;22.534;2022-12-05T12:00:49;1.10;99.90
23122;DHT22;11730;51.248;22.534;2022-12-05T12:03:48;1.20;99.90
23122;DHT22;11730;51.248;22.534;2022-12-05T12:09:32;1.00;99.90
23122;DHT22;11730;51.248;22.534;2022-12-05T12:12:22;1.10;99.90
23122;DHT22;11730;51.248;22.534;2022-12-05T12:17:48;1.10;99.90
23122;DHT22;11730;51.248;22.534;2022-12-05T12:23:11;1.20;99.90
23122;DHT22;11730;51.248;22.534;2022-12-05T12:25:51;1.20;99.90
23122;DHT22;11730;51.248;22.534;2022-12-05T12:31:26;1.20;99.90
23122;DHT22;11730;51.248;22.534;2022-12-05T12:36:44;1.10;99.90
23122;DHT22;11730;51.248;22.534;2022-12-05T12:39:36;1.10;99.90
23122;DHT22;11730;51.248;22.534;2022-12-05T12:42:24;1.20;99.90
23122;DHT22;11730;51.248;22.534;2022-12-05T12:45:05;1.20;99.90
23122;DHT22;11730;51.248;22.534;2022-12-05T12:50:21;1.10;99.90
23122;DHT22;11730;51.248;22.534;2022-12-05T13:03:50;1.00;99.90
23122;DHT22;11730;51.248;22.534;2022-12-05T13:06:39;0.90;99.90
23122;DHT22;11730;51.248;22.534;2022-12-05T13:09:20;0.90;99.90
23122;DHT22;11730;51.248;22.534;2022-12-05T13:11:50;1.00;99.90
23122;DHT22;11730;51.248;22.534;2022-12-05T13:14:21;1.00;99.90
23122;DHT22;11730;51.248;22.534;2022-12-05T13:16:52;1.00;99.90
23122;DHT22;11730;51.248;22.534;2022-12-05T13:19:30;1.00;99.90
23122;DHT22;11730;51.248;22.534;2022-12-05T13:22:05;0.90;99.90
23122;DHT22;11730;51.248;22.534;2022-12-05T13:24:32;1.00;99.90
23122;DHT22;11730;51.248;22.534;2022-12-05T13:27:05;1.00;99.90
23122;DHT22;11730;51.248;22.534;2022-12-05T13:29:47;1.00;99.90
23122;DHT22;11730;51.248;22.534;2022-12-05T13:32:36;1.10;99.90
23122;DHT22;11730;51.248;22.534;2022-12-05T13:35:10;1.00;99.90
23122;DHT22;11730;51.248;22.534;2022-12-05T13:37:45;1.10;99.90
23122;DHT22;11730;51.248;22.534;2022-12-05T13:40:32;1.10;99.90
23122;DHT22;11730;51.248;22.534;2022-12-05T13:43:21;1.20;99.90
23122;DHT22;11730;51.248;22.534;2022-12-05T13:46:08;1.10;99.90
23122;DHT22;11730;51.248;22.534;2022-12-05T13:48:38;1.10;99.90
23122;DHT22;11730;51.248;22.534;2022-12-05T13:51:19;1.10;99.90
23122;DHT22;11730;51.248;22.534;2022-12-05T13:53:56;1.00;99.90
23122;DHT22;11730;51.248;22.534;2022-12-05T13:56:26;1.00;99.90
23122;DHT22;11730;51.248;22.534;2022-12-05T13:59:11;1.00;99.90
23122;DHT22;11730;51.248;22.534;2022-12-05T14:01:42;1.00;99.90
23122;DHT22;11730;51.248;22.534;2022-12-05T14:04:43;1.00;99.90
23122;DHT22;11730;51.248;22.534;2022-12-05T14:07:36;1.10;99.90
23122;DHT22;11730;51.248;22.534;2022-12-05T14:10:04;1.10;99.90
23122;DHT22;11730;51.248;22.534;2022-12-05T14:15:28;1.10;99.90
23122;DHT22;11730;51.248;22.534;2022-12-05T14:18:15;1.10;99.90
23122;DHT22;11730;51.248;22.534;2022-12-05T14:20:52;1.10;99.90
23122;DHT22;11730;51.248;22.534;2022-12-05T14:32:00;1.00;99.90
23122;DHT22;11730;51.248;22.534;2022-12-05T14:34:32;1.10;99.90
23122;DHT22;11730;51.248;22.534;2022-12-05T14:37:06;1.00;99.90
23122;DHT22;11730;51.248;22.534;2022-12-05T14:44:53;1.00;99.90
23122;DHT22;11730;51.248;22.534;2022-12-05T14:47:24;1.10;99.90
23122;DHT22;11730;51.248;22.534;2022-12-05T14:49:56;1.10;99.90
23122;DHT22;11730;51.248;22.534;2022-12-05T14:52:29;1.20;99.90
23122;DHT22;11730;51.248;22.534;2022-12-05T14:55:01;1.10;99.90
23122;DHT22;11730;51.248;22.534;2022-12-05T14:57:30;1.30;99.90
23122;DHT22;11730;51.248;22.534;2022-12-05T15:00:04;1.20;99.90
23122;DHT22;11730;51.248;22.534;2022-12-05T15:02:42;1.10;99.90
23122;DHT22;11730;51.248;22.534;2022-12-05T15:05:25;1.20;99.90
23122;DHT22;11730;51.248;22.534;2022-12-05T15:07:53;1.10;99.90
23122;DHT22;11730;51.248;22.534;2022-12-05T15:10:33;1.10;99.90
23122;DHT22;11730;51.248;22.534;2022-12-05T15:13:14;1.10;99.90
23122;DHT22;11730;51.248;22.534;2022-12-05T15:15:46;1.10;99.90
23122;DHT22;11730;51.248;22.534;2022-12-05T15:18:39;1.10;99.90
23122;DHT22;11730;51.248;22.534;2022-12-05T15:21:13;1.10;99.90
23122;DHT22;11730;51.248;22.534;2022-12-05T15:37:09;0.90;99.90
23122;DHT22;11730;51.248;22.534;2022-12-05T15:40:00;0.90;99.90
23122;DHT22;11730;51.248;22.534;2022-12-05T15:47:43;1.00;99.90
23122;DHT22;11730;51.248;22.534;2022-12-05T15:50:37;0.90;99.90
23122;DHT22;11730;51.248;22.534;2022-12-05T15:53:15;0.90;99.90
23122;DHT22;11730;51.248;22.534;2022-12-05T16:01:25;1.00;99.90
23122;DHT22;11730;51.248;22.534;2022-12-05T16:08:55;1.00;99.90
23122;DHT22;11730;51.248;22.534;2022-12-05T16:11:22;0.90;99.90
23122;DHT22;11730;51.248;22.534;2022-12-05T16:13:54;0.90;99.90
23122;DHT22;11730;51.248;22.534;2022-12-05T16:16:24;0.90;99.90
23122;DHT22;11730;51.248;22.534;2022-12-05T16:18:55;0.90;99.90
23122;DHT22;11730;51.248;22.534;2022-12-05T16:21:41;0.90;99.90
23122;DHT22;11730;51.248;22.534;2022-12-05T16:26:41;0.80;99.90
23122;DHT22;11730;51.248;22.534;2022-12-05T16:29:32;0.90;99.90
23122;DHT22;11730;51.248;22.534;2022-12-05T16:32:01;0.90;99.90
23122;DHT22;11730;51.248;22.534;2022-12-05T16:34:31;0.80;99.90
23122;DHT22;11730;51.248;22.534;2022-12-05T16:37:00;0.90;99.90
23122;DHT22;11730;51.248;22.534;2022-12-05T16:39:27;0.80;99.90
23122;DHT22;11730;51.248;22.534;2022-12-05T16:41:58;0.80;99.90
23122;DHT22;11730;51.248;22.534;2022-12-05T16:47:25;0.80;99.90
23122;DHT22;11730;51.248;22.534;2022-12-05T16:49:52;0.70;99.90
23122;DHT22;11730;51.248;22.534;2022-12-05T16:52:19;0.80;99.90
23122;DHT22;11730;51.248;22.534;2022-12-05T16:54:46;0.80;99.90
23122;DHT22;11730;51.248;22.534;2022-12-05T16:57:18;0.80;99.90
23122;DHT22;11730;51.248;22.534;2022-12-05T16:59:45;0.90;99.90
23122;DHT22;11730;51.248;22.534;2022-12-05T17:02:16;0.90;99.90
23122;DHT22;11730;51.248;22.534;2022-12-05T17:04:44;0.80;99.90
23122;DHT22;11730;51.248;22.534;2022-12-05T17:07:12;0.90;99.90
23122;DHT22;11730;51.248;22.534;2022-12-05T17:09:39;0.90;99.90
23122;DHT22;11730;51.248;22.534;2022-12-05T17:12:20;0.80;99.90
23122;DHT22;11730;51.248;22.534;2022-12-05T17:14:47;0.90;99.90
23122;DHT22;11730;51.248;22.534;2022-12-05T17:17:17;0.90;99.90
23122;DHT22;11730;51.248;22.534;2022-12-05T17:19:44;0.90;99.90
23122;DHT22;11730;51.248;22.534;2022-12-05T17:22:13;0.90;99.90
23122;DHT22;11730;51.248;22.534;2022-12-05T17:24:42;0.80;99.90
23122;DHT22;11730;51.248;22.534;2022-12-05T17:27:11;0.80;99.90
23122;DHT22;11730;51.248;22.534;2022-12-05T17:29:38;0.70;99.90
23122;DHT22;11730;51.248;22.534;2022-12-05T17:32:05;0.70;99.90
23122;DHT22;11730;51.248;22.534;2022-12-05T17:34:32;0.80;99.90
23122;DHT22;11730;51.248;22.534;2022-12-05T17:36:59;0.80;99.90
23122;DHT22;11730;51.248;22.534;2022-12-05T17:39:26;0.80;99.90
23122;DHT22;11730;51.248;22.534;2022-12-05T17:41:55;0.60;99.90
23122;DHT22;11730;51.248;22.534;2022-12-05T17:44:22;0.70;99.90
23122;DHT22;11730;51.248;22.534;2022-12-05T17:46:49;0.70;99.90
23122;DHT22;11730;51.248;22.534;2022-12-05T17:49:16;0.60;99.90
23122;DHT22;11730;51.248;22.534;2022-12-05T17:51:44;0.60;99.90
23122;DHT22;11730;51.248;22.534;2022-12-05T17:54:31;0.60;99.90
23122;DHT22;11730;51.248;22.534;2022-12-05T17:56:58;0.60;99.90
23122;DHT22;11730;51.248;22.534;2022-12-05T17:59:26;0.70;99.90
23122;DHT22;11730;51.248;22.534;2022-12-05T18:01:53;0.60;99.90
23122;DHT22;11730;51.248;22.534;2022-12-05T18:04:19;0.60;99.90
23122;DHT22;11730;51.248;22.534;2022-12-05T18:06:49;0.60;99.90
23122;DHT22;11730;51.248;22.534;2022-12-05T18:09:17;0.50;99.90
23122;DHT22;11730;51.248;22.534;2022-12-05T18:11:47;0.50;99.90
23122;DHT22;11730;51.248;22.534;2022-12-05T18:14:14;0.50;99.90
23122;DHT22;11730;51.248;22.534;2022-12-05T18:16:41;0.40;99.90
23122;DHT22;11730;51.248;22.534;2022-12-05T18:19:08;0.40;99.90
23122;DHT22;11730;51.248;22.534;2022-12-05T18:21:35;0.40;99.90
23122;DHT22;11730;51.248;22.534;2022-12-05T18:24:03;0.40;99.90